createdAt,value
2023-02-15T00:01:13.896Z,95.81
2023-02-15T00:03:35.405Z,96.25
2023-02-15T00:05:58.665Z,96.44
2023-02-15T00:08:20.155Z,96.01
2023-02-15T00:10:41.586Z,95.83
2023-02-15T00:13:03.738Z,96.84
2023-02-15T00:15:26.927Z,96.69
2023-02-15T00:17:48.368Z,95.66
2023-02-15T00:20:10.175Z,94.56
2023-02-15T00:22:31.633Z,94.65
2023-02-15T00:24:53.066Z,94.39
2023-02-15T00:27:14.590Z,93.76
2023-02-15T00:29:36.082Z,93.23
2023-02-15T00:31:57.572Z,92.99
2023-02-15T00:34:21.837Z,92.02
2023-02-15T00:36:44.466Z,91.90
2023-02-15T00:39:06.641Z,91.29
2023-02-15T00:41:28.144Z,90.42
2023-02-15T00:43:49.563Z,89.85
2023-02-15T00:46:11.127Z,87.91
2023-02-15T00:48:33.353Z,88.58
2023-02-15T00:50:57.463Z,88.38
2023-02-15T00:53:19.465Z,88.84
2023-02-15T00:55:41.312Z,88.69
2023-02-15T00:58:02.793Z,88.83
2023-02-15T01:00:24.304Z,88.81
2023-02-15T01:02:45.759Z,88.89
2023-02-15T01:05:07.471Z,88.44
2023-02-15T01:07:28.938Z,88.50
2023-02-15T01:09:50.390Z,88.08
2023-02-15T01:12:11.833Z,88.28
2023-02-15T01:14:33.278Z,88.40
2023-02-15T01:16:54.711Z,88.17
2023-02-15T01:19:16.147Z,88.05
2023-02-15T01:21:37.626Z,86.79
2023-02-15T01:24:00.108Z,85.86
2023-02-15T01:26:21.614Z,86.28
2023-02-15T01:28:43.221Z,86.35
2023-02-15T01:31:14.159Z,86.59
2023-02-15T01:33:36.946Z,87.48
2023-02-15T01:35:59.784Z,86.77
2023-02-15T01:38:21.445Z,87.23
2023-02-15T01:40:42.854Z,87.05
2023-02-15T01:43:04.305Z,87.27
2023-02-15T01:45:29.124Z,87.22
2023-02-15T01:47:59.290Z,87.62
2023-02-15T01:50:40.149Z,86.92
2023-02-15T01:53:19.037Z,86.59
2023-02-15T01:55:47.904Z,87.06
2023-02-15T01:58:10.046Z,87.62
2023-02-15T02:00:32.619Z,88.81
2023-02-15T02:02:56.674Z,87.87
2023-02-15T02:05:18.161Z,88.06
2023-02-15T02:07:44.810Z,87.68
2023-02-15T02:10:08.530Z,87.27
2023-02-15T02:12:30.826Z,87.35
2023-02-15T02:14:54.271Z,87.38
2023-02-15T02:17:22.324Z,86.93
2023-02-15T02:19:46.536Z,87.34
2023-02-15T02:22:16.765Z,87.13
2023-02-15T02:25:08.790Z,86.65
2023-02-15T02:27:40.290Z,86.01
2023-02-15T02:30:18.312Z,85.98
2023-02-15T02:33:00.743Z,86.82
2023-02-15T02:35:33.714Z,87.16
2023-02-15T02:38:05.628Z,86.97
2023-02-15T02:40:34.274Z,86.19
2023-02-15T02:43:15.695Z,85.86
2023-02-15T02:45:44.436Z,85.66
2023-02-15T02:48:14.398Z,85.81
2023-02-15T02:50:35.825Z,86.18
2023-02-15T02:52:59.407Z,85.75
2023-02-15T02:55:32.646Z,84.80
2023-02-15T02:58:25.474Z,84.73
2023-02-15T03:00:54.992Z,84.52
2023-02-15T03:03:39.088Z,84.36
2023-02-15T03:06:05.642Z,84.23
2023-02-15T03:08:33.123Z,83.97
2023-02-15T03:10:57.086Z,84.05
2023-02-15T03:13:18.741Z,84.34
2023-02-15T03:16:01.381Z,84.61
2023-02-15T03:18:29.162Z,84.53
2023-02-15T03:20:53.114Z,84.05
2023-02-15T03:23:21.962Z,83.84
2023-02-15T03:25:47.306Z,83.54
2023-02-15T03:28:14.104Z,83.53
2023-02-15T03:30:37.602Z,83.50
2023-02-15T03:33:01.017Z,84.46
2023-02-15T03:35:25.846Z,84.20
2023-02-15T03:37:58.333Z,85.99
2023-02-15T03:40:44.097Z,83.92
2023-02-15T03:43:33.690Z,83.01
2023-02-15T03:46:02.104Z,82.24
2023-02-15T03:48:33.215Z,82.80
2023-02-15T03:51:21.767Z,83.70
2023-02-15T03:53:45.610Z,83.90
2023-02-15T03:56:07.358Z,83.88
2023-02-15T03:58:47.572Z,83.65
2023-02-15T04:01:37.921Z,83.91
2023-02-15T04:04:08.760Z,82.85
2023-02-15T04:06:30.218Z,83.21
2023-02-15T04:09:10.433Z,83.23
2023-02-15T04:11:31.844Z,84.97
2023-02-15T04:13:57.627Z,84.89
2023-02-15T04:16:19.190Z,83.54
2023-02-15T04:19:03.232Z,83.25
2023-02-15T04:21:45.608Z,82.85
2023-02-15T04:24:25.955Z,83.80
2023-02-15T04:26:48.785Z,83.64
2023-02-15T04:29:10.259Z,83.85
2023-02-15T04:31:31.764Z,83.82
2023-02-15T04:33:53.226Z,83.96
2023-02-15T04:36:14.668Z,85.89
2023-02-15T04:38:36.105Z,87.10
2023-02-15T04:40:57.554Z,86.12
2023-02-15T04:43:20.082Z,85.80
2023-02-15T04:45:41.662Z,85.68
2023-02-15T04:48:03.194Z,85.70
2023-02-15T04:50:24.669Z,85.16
2023-02-15T04:52:46.122Z,85.50
2023-02-15T04:55:08.011Z,85.77
2023-02-15T04:57:29.717Z,85.50
2023-02-15T04:59:51.158Z,85.26
2023-02-15T05:02:12.634Z,85.24
2023-02-15T05:04:34.182Z,84.86
2023-02-15T05:06:55.812Z,84.47
2023-02-15T05:09:17.637Z,84.93
2023-02-15T05:11:39.082Z,84.39
2023-02-15T05:14:00.556Z,86.04
2023-02-15T05:16:22.124Z,87.26
2023-02-15T05:18:43.783Z,88.72
2023-02-15T05:21:05.296Z,88.92
2023-02-15T05:23:26.957Z,89.20
2023-02-15T05:26:08.394Z,88.59
2023-02-15T05:28:29.859Z,86.97
2023-02-15T05:31:06.706Z,86.15
2023-02-15T05:33:28.249Z,86.79
2023-02-15T05:35:49.678Z,89.87
2023-02-15T05:38:11.117Z,89.25
2023-02-15T05:40:32.663Z,88.53
2023-02-15T05:42:54.163Z,87.33
2023-02-15T05:45:16.558Z,87.76
2023-02-15T05:47:37.984Z,87.46
2023-02-15T05:49:59.413Z,86.65
2023-02-15T05:52:20.876Z,87.21
2023-02-15T05:54:42.343Z,85.63
2023-02-15T05:57:03.768Z,85.84
2023-02-15T05:59:25.237Z,85.32
2023-02-15T06:01:46.690Z,85.83
2023-02-15T06:04:08.175Z,85.73
2023-02-15T06:06:29.605Z,85.69
2023-02-15T06:08:51.041Z,84.45
2023-02-15T06:11:12.478Z,83.95
2023-02-15T06:13:37.225Z,83.67
2023-02-15T06:16:00.340Z,84.35
2023-02-15T06:18:22.267Z,86.76
2023-02-15T06:20:46.819Z,87.03
2023-02-15T06:23:08.329Z,87.85
2023-02-15T06:25:29.919Z,87.93
2023-02-15T06:27:51.618Z,86.88
2023-02-15T06:30:13.919Z,86.29
2023-02-15T06:32:35.454Z,86.31
2023-02-15T06:34:56.911Z,86.35
2023-02-15T06:37:18.329Z,86.51
2023-02-15T06:39:39.786Z,86.06
2023-02-15T06:42:01.238Z,86.39
2023-02-15T06:44:22.697Z,86.01
2023-02-15T06:46:44.193Z,88.29
2023-02-15T06:49:05.750Z,88.30
2023-02-15T06:51:27.215Z,88.50
2023-02-15T06:53:48.731Z,88.64
2023-02-15T06:56:11.224Z,89.86
2023-02-15T06:58:42.838Z,90.99
2023-02-15T07:01:04.792Z,89.96
2023-02-15T07:03:26.231Z,89.92
2023-02-15T07:05:49.739Z,91.43
2023-02-15T07:08:11.208Z,92.02
2023-02-15T07:10:32.650Z,93.77
2023-02-15T07:12:54.501Z,93.38
2023-02-15T07:15:18.331Z,94.07
2023-02-15T07:17:40.516Z,92.21
2023-02-15T07:20:03.325Z,91.17
2023-02-15T07:22:24.749Z,91.59
2023-02-15T07:24:46.252Z,93.13
2023-02-15T07:27:08.847Z,92.99
2023-02-15T07:29:30.299Z,90.50
2023-02-15T07:31:51.781Z,90.49
2023-02-15T07:34:13.358Z,90.18
2023-02-15T07:36:34.781Z,90.51
2023-02-15T07:38:56.213Z,90.22
2023-02-15T07:41:17.806Z,90.83
2023-02-15T07:43:42.705Z,90.47
2023-02-15T07:46:06.713Z,89.16
2023-02-15T07:48:28.285Z,89.27
2023-02-15T07:50:49.730Z,88.78
2023-02-15T07:53:11.212Z,89.39
2023-02-15T07:55:32.740Z,89.26
2023-02-15T07:57:55.028Z,89.97
2023-02-15T08:00:19.398Z,90.12
2023-02-15T08:02:40.899Z,89.69
2023-02-15T08:05:02.359Z,89.98
2023-02-15T08:07:23.817Z,89.51
2023-02-15T08:09:45.258Z,89.96
2023-02-15T08:12:07.176Z,89.18
2023-02-15T08:14:28.981Z,89.95
2023-02-15T08:16:53.243Z,89.94
2023-02-15T08:19:18.804Z,91.18
2023-02-15T08:21:44.083Z,90.55
2023-02-15T08:24:06.982Z,90.33
2023-02-15T08:26:30.337Z,90.85
2023-02-15T08:28:52.899Z,91.88
2023-02-15T08:31:14.884Z,91.69
2023-02-15T08:33:38.543Z,92.29
2023-02-15T08:36:06.864Z,91.58
2023-02-15T08:38:28.297Z,91.27
2023-02-15T08:40:49.725Z,91.15
2023-02-15T08:43:11.200Z,91.42
2023-02-15T08:45:32.790Z,91.06
2023-02-15T08:47:54.233Z,91.49
2023-02-15T08:50:15.826Z,91.91
2023-02-15T08:52:37.322Z,92.01
2023-02-15T08:54:58.768Z,90.89
2023-02-15T08:57:20.190Z,91.20
2023-02-15T08:59:41.641Z,92.64
2023-02-15T09:02:04.104Z,92.22
2023-02-15T09:04:25.608Z,92.40
2023-02-15T09:06:49.470Z,91.44
2023-02-15T09:09:11.859Z,90.58
2023-02-15T09:11:42.148Z,90.89
2023-02-15T09:14:06.532Z,90.98
2023-02-15T09:16:30.619Z,91.50
2023-02-15T09:18:52.624Z,91.57
2023-02-15T09:21:19.815Z,91.66
2023-02-15T09:23:45.211Z,91.45
2023-02-15T09:26:09.989Z,91.32
2023-02-15T09:28:33.564Z,92.81
2023-02-15T09:30:55.067Z,93.49
2023-02-15T09:33:16.511Z,94.51
2023-02-15T09:35:37.979Z,96.31
2023-02-15T09:37:59.388Z,94.63
2023-02-15T09:40:20.848Z,95.46
2023-02-15T09:42:54.190Z,95.00
2023-02-15T09:45:24.614Z,96.24
2023-02-15T09:48:06.294Z,96.72
2023-02-15T09:50:55.119Z,97.88
2023-02-15T09:53:33.326Z,96.72
2023-02-15T09:56:21.232Z,97.20
2023-02-15T09:59:04.698Z,97.05
2023-02-15T10:02:00.430Z,96.44
2023-02-15T10:04:24.592Z,96.27
2023-02-15T10:06:57.798Z,95.48
2023-02-15T10:10:12.170Z,95.72
2023-02-15T10:12:59.734Z,95.27
2023-02-15T10:15:24.997Z,95.63
2023-02-15T10:18:06.687Z,95.45
2023-02-15T10:20:28.098Z,95.74
2023-02-15T10:23:16.252Z,95.74
2023-02-15T10:25:44.163Z,94.41
2023-02-15T10:28:10.140Z,94.24
2023-02-15T10:30:59.222Z,95.48
2023-02-15T10:33:39.032Z,95.44
2023-02-15T10:36:18.501Z,95.54
2023-02-15T10:39:01.347Z,95.12
2023-02-15T10:41:35.409Z,94.81
2023-02-15T10:44:11.423Z,93.71
2023-02-15T10:46:50.365Z,91.94
2023-02-15T10:49:21.370Z,91.73
2023-02-15T10:51:58.049Z,92.31
2023-02-15T10:54:40.879Z,92.54
2023-02-15T10:57:27.228Z,91.62
2023-02-15T11:00:24.985Z,92.44
2023-02-15T11:03:47.307Z,94.49
2023-02-15T11:06:21.654Z,93.56
2023-02-15T11:08:47.528Z,92.77
2023-02-15T11:11:13.179Z,93.15
2023-02-15T11:13:40.803Z,93.15
2023-02-15T11:16:09.306Z,91.12
2023-02-15T11:18:47.892Z,90.89
2023-02-15T11:21:37.894Z,91.03
2023-02-15T11:24:00.834Z,91.32
2023-02-15T11:26:34.146Z,91.05
2023-02-15T11:29:32.206Z,90.73
2023-02-15T11:32:02.429Z,90.55
2023-02-15T11:34:26.820Z,89.99
2023-02-15T11:36:51.502Z,90.60
2023-02-15T11:39:17.224Z,91.17
2023-02-15T11:41:43.064Z,92.27
2023-02-15T11:44:16.232Z,91.93
2023-02-15T11:46:38.196Z,92.91
2023-02-15T11:48:59.834Z,92.94
2023-02-15T11:51:24.145Z,92.16
2023-02-15T11:53:46.959Z,91.93
2023-02-15T11:56:16.132Z,92.37
2023-02-15T11:58:53.487Z,92.22
2023-02-15T12:01:25.565Z,92.05
2023-02-15T12:03:52.720Z,90.87
2023-02-15T12:06:24.519Z,91.40
2023-02-15T12:08:53.689Z,92.03
2023-02-15T12:11:23.397Z,93.45
2023-02-15T12:14:06.426Z,92.41
2023-02-15T12:16:41.308Z,92.15
2023-02-15T12:19:03.410Z,90.39
2023-02-15T12:21:28.913Z,92.24
2023-02-15T12:23:57.416Z,92.47
2023-02-15T12:26:27.657Z,93.68
2023-02-15T12:28:53.067Z,92.74
2023-02-15T12:31:24.416Z,91.84
2023-02-15T12:33:47.025Z,92.24
2023-02-15T12:36:22.200Z,91.38
2023-02-15T12:38:43.940Z,90.66
2023-02-15T12:41:23.760Z,89.66
2023-02-15T12:43:46.200Z,89.54
2023-02-15T12:46:21.297Z,86.91
2023-02-15T12:48:42.789Z,86.61
2023-02-15T12:51:09.779Z,85.94
2023-02-15T12:53:34.009Z,84.29
2023-02-15T12:56:00.977Z,86.21
2023-02-15T12:58:34.168Z,86.47
2023-02-15T13:01:15.032Z,87.70
2023-02-15T13:03:59.015Z,86.04
2023-02-15T13:06:21.793Z,85.80
2023-02-15T13:08:51.311Z,87.09
2023-02-15T13:11:13.835Z,86.40
2023-02-15T13:13:46.631Z,86.82
2023-02-15T13:16:14.815Z,86.87
2023-02-15T13:18:43.233Z,84.31
2023-02-15T13:21:15.163Z,83.37
2023-02-15T13:23:36.932Z,83.76
2023-02-15T13:26:00.897Z,84.61
2023-02-15T13:28:29.151Z,84.99
2023-02-15T13:30:51.363Z,84.92
2023-02-15T13:33:27.274Z,84.16
2023-02-15T13:35:59.204Z,83.43
2023-02-15T13:38:40.929Z,83.04
2023-02-15T13:41:13.643Z,82.30
2023-02-15T13:43:59.836Z,83.33
2023-02-15T13:46:44.475Z,82.19
2023-02-15T13:49:41.692Z,84.49
2023-02-15T13:52:06.005Z,84.22
2023-02-15T13:54:53.632Z,82.50
2023-02-15T13:57:20.841Z,84.17
2023-02-15T14:00:14.828Z,84.50
2023-02-15T14:02:45.022Z,85.38
2023-02-15T14:05:30.285Z,85.49
2023-02-15T14:08:33.744Z,88.04
2023-02-15T14:10:58.131Z,86.43
2023-02-15T14:13:57.221Z,86.69
2023-02-15T14:16:25.528Z,84.23
2023-02-15T14:18:59.814Z,85.62
2023-02-15T14:21:31.215Z,84.64
2023-02-15T14:24:30.492Z,83.16
2023-02-15T14:27:07.383Z,82.97
2023-02-15T14:29:44.085Z,82.95
2023-02-15T14:32:12.841Z,82.87
2023-02-15T14:34:51.342Z,84.44
2023-02-15T14:37:17.615Z,84.33
2023-02-15T14:40:11.067Z,84.27
2023-02-15T14:42:51.986Z,84.68
2023-02-15T14:45:34.365Z,83.86
2023-02-15T14:48:12.779Z,83.38
2023-02-15T14:50:44.072Z,84.00
2023-02-15T14:53:18.631Z,84.51
2023-02-15T14:55:40.060Z,83.47
2023-02-15T14:58:01.556Z,83.96
2023-02-15T15:00:39.831Z,84.10
2023-02-15T15:03:01.498Z,82.44
2023-02-15T15:05:36.168Z,83.10
2023-02-15T15:08:00.900Z,83.79
2023-02-15T15:10:22.295Z,83.67
2023-02-15T15:12:45.811Z,83.58
2023-02-15T15:15:11.885Z,82.99
2023-02-15T15:17:38.882Z,83.32
2023-02-15T15:20:14.723Z,82.87
2023-02-15T15:22:37.434Z,82.43
2023-02-15T15:25:12.186Z,83.40
2023-02-15T15:27:41.212Z,84.23
2023-02-15T15:30:03.851Z,85.21
2023-02-15T15:32:32.414Z,85.39
2023-02-15T15:35:18.984Z,87.11
2023-02-15T15:38:18.754Z,87.14
2023-02-15T15:41:01.443Z,88.25
2023-02-15T15:43:37.236Z,88.13
2023-02-15T15:46:23.719Z,86.08
2023-02-15T15:48:45.624Z,86.52
2023-02-15T15:51:41.127Z,85.54
2023-02-15T15:54:04.922Z,84.71
2023-02-15T15:56:33.355Z,84.96
2023-02-15T15:58:59.297Z,84.18
2023-02-15T16:01:30.152Z,84.75
2023-02-15T16:03:53.955Z,84.64
2023-02-15T16:06:26.685Z,85.30
2023-02-15T16:08:48.265Z,86.21
2023-02-15T16:11:27.045Z,85.20
2023-02-15T16:13:48.561Z,85.39
2023-02-15T16:16:13.743Z,85.85
2023-02-15T16:18:39.845Z,86.37
2023-02-15T16:21:02.581Z,87.55
2023-02-15T16:23:30.078Z,87.51
2023-02-15T16:26:09.510Z,86.05
2023-02-15T16:28:31.150Z,87.17
2023-02-15T16:31:06.366Z,87.74
2023-02-15T16:33:37.462Z,87.56
2023-02-15T16:36:04.017Z,87.87
2023-02-15T16:39:06.294Z,88.19
2023-02-15T16:41:29.496Z,88.30
2023-02-15T16:43:52.762Z,88.07
2023-02-15T16:46:32.538Z,86.91
2023-02-15T16:48:59.503Z,86.43
2023-02-15T16:51:32.967Z,86.52
2023-02-15T16:53:55.822Z,86.74
2023-02-15T16:56:24.458Z,87.74
2023-02-15T16:58:50.895Z,89.00
2023-02-15T17:01:15.418Z,89.26
2023-02-15T17:03:37.435Z,89.64
2023-02-15T17:06:01.317Z,89.23
2023-02-15T17:08:31.388Z,90.32
2023-02-15T17:11:20.867Z,90.84
2023-02-15T17:14:10.891Z,89.90
2023-02-15T17:16:59.483Z,89.52
2023-02-15T17:19:27.506Z,89.94
2023-02-15T17:22:01.462Z,89.65
2023-02-15T17:24:35.563Z,89.14
2023-02-15T17:27:01.758Z,89.56
2023-02-15T17:29:32.558Z,90.49
2023-02-15T17:31:58.536Z,91.46
2023-02-15T17:34:58.697Z,91.84
2023-02-15T17:37:33.624Z,92.99
2023-02-15T17:39:56.073Z,93.59
2023-02-15T17:42:17.569Z,92.39
2023-02-15T17:44:39.014Z,92.46
2023-02-15T17:47:00.430Z,92.70
2023-02-15T17:49:29.340Z,91.95
2023-02-15T17:51:50.790Z,92.04
2023-02-15T17:54:30.757Z,91.06
2023-02-15T17:56:52.179Z,91.94
2023-02-15T17:59:15.180Z,92.65
2023-02-15T18:02:02.119Z,92.77
2023-02-15T18:04:43.510Z,93.35
2023-02-15T18:07:23.939Z,93.78
2023-02-15T18:10:04.484Z,92.72
2023-02-15T18:12:31.552Z,91.95
2023-02-15T18:14:56.990Z,92.15
2023-02-15T18:17:19.346Z,91.80
2023-02-15T18:19:43.036Z,91.05
2023-02-15T18:22:11.432Z,91.38
2023-02-15T18:24:32.864Z,91.81
2023-02-15T18:26:54.582Z,91.97
2023-02-15T18:29:16.400Z,92.46
2023-02-15T18:31:38.168Z,93.36
2023-02-15T18:34:02.598Z,92.87
2023-02-15T18:36:28.260Z,92.15
2023-02-15T18:38:49.902Z,92.23
2023-02-15T18:41:18.589Z,93.30
2023-02-15T18:43:40.019Z,91.95
2023-02-15T18:46:01.524Z,91.33
2023-02-15T18:48:23.034Z,90.37
2023-02-15T18:50:44.804Z,90.03
2023-02-15T18:53:12.027Z,90.50
2023-02-15T18:55:35.383Z,91.38
2023-02-15T18:57:57.288Z,92.07
2023-02-15T19:00:21.600Z,92.09
2023-02-15T19:02:43.352Z,91.73
2023-02-15T19:05:04.977Z,92.78
2023-02-15T19:07:27.958Z,93.32
2023-02-15T19:09:52.855Z,93.51
2023-02-15T19:12:14.323Z,93.20
2023-02-15T19:14:35.790Z,93.08
2023-02-15T19:16:58.937Z,92.22
2023-02-15T19:19:20.685Z,92.45
2023-02-15T19:21:42.364Z,93.23
2023-02-15T19:24:08.712Z,91.99
2023-02-15T19:26:44.348Z,91.75
2023-02-15T19:29:06.471Z,91.53
2023-02-15T19:31:28.015Z,91.72
2023-02-15T19:33:49.527Z,90.11
2023-02-15T19:36:21.565Z,91.01
2023-02-15T19:38:44.427Z,90.25
2023-02-15T19:41:08.445Z,91.00
2023-02-15T19:43:30.314Z,92.24
2023-02-15T19:45:53.078Z,92.51
2023-02-15T19:48:14.927Z,90.77
2023-02-15T19:50:36.417Z,90.53
2023-02-15T19:52:58.030Z,92.11
2023-02-15T19:55:29.411Z,91.64
2023-02-15T19:57:52.337Z,91.22
2023-02-15T20:00:22.285Z,90.96
2023-02-15T20:02:45.035Z,90.08
2023-02-15T20:05:06.949Z,89.25
2023-02-15T20:07:28.700Z,89.64
2023-02-15T20:09:50.303Z,91.22
2023-02-15T20:12:22.053Z,92.11
2023-02-15T20:14:43.490Z,92.24
2023-02-15T20:17:04.948Z,92.60
2023-02-15T20:19:26.407Z,93.14
2023-02-15T20:21:54.525Z,93.00
2023-02-15T20:24:19.130Z,92.93
2023-02-15T20:26:40.649Z,93.14
2023-02-15T20:29:02.305Z,92.05
2023-02-15T20:31:25.690Z,91.52
2023-02-15T20:33:48.294Z,91.40
2023-02-15T20:36:18.793Z,90.99
2023-02-15T20:38:40.462Z,89.93
2023-02-15T20:41:20.615Z,89.61
2023-02-15T20:43:42.330Z,89.65
2023-02-15T20:46:04.434Z,89.38
2023-02-15T20:48:26.024Z,89.56
2023-02-15T20:50:47.600Z,89.02
2023-02-15T20:53:10.706Z,87.80
2023-02-15T20:55:32.424Z,87.67
2023-02-15T20:57:53.901Z,87.39
2023-02-15T21:00:20.752Z,86.96
2023-02-15T21:02:42.227Z,88.15
2023-02-15T21:05:14.542Z,89.27
2023-02-15T21:07:35.975Z,90.06
2023-02-15T21:09:57.406Z,89.45
2023-02-15T21:12:19.867Z,89.23
2023-02-15T21:14:41.320Z,90.16
2023-02-15T21:17:03.114Z,90.19
2023-02-15T21:19:24.978Z,90.28
2023-02-15T21:21:48.187Z,90.72
2023-02-15T21:24:15.756Z,90.98
2023-02-15T21:26:38.510Z,90.26
2023-02-15T21:29:00.064Z,90.13
2023-02-15T21:31:24.637Z,90.50
2023-02-15T21:33:46.243Z,91.18
2023-02-15T21:36:15.101Z,92.66
2023-02-15T21:38:37.365Z,95.31
2023-02-15T21:41:18.793Z,95.51
2023-02-15T21:43:58.894Z,94.42
2023-02-15T21:46:38.862Z,93.48
2023-02-15T21:49:01.804Z,93.19
2023-02-15T21:51:41.916Z,93.58
2023-02-15T21:54:03.369Z,93.46
2023-02-15T21:56:25.216Z,93.96
2023-02-15T21:58:47.198Z,94.01
2023-02-15T22:01:35.136Z,93.93
2023-02-15T22:03:58.923Z,93.48
2023-02-15T22:06:20.650Z,93.03
2023-02-15T22:08:42.207Z,93.31
2023-02-15T22:11:09.858Z,94.64
2023-02-15T22:13:33.911Z,95.69
2023-02-15T22:15:56.663Z,94.67
2023-02-15T22:18:21.960Z,93.19
2023-02-15T22:20:43.404Z,91.99
2023-02-15T22:23:04.852Z,91.53
2023-02-15T22:25:27.072Z,92.00
2023-02-15T22:27:50.171Z,91.71
2023-02-15T22:30:26.188Z,92.85
2023-02-15T22:32:47.701Z,94.00
2023-02-15T22:35:17.377Z,93.38
2023-02-15T22:37:38.840Z,93.94
2023-02-15T22:40:00.265Z,93.52
2023-02-15T22:42:28.653Z,93.68
2023-02-15T22:44:50.286Z,94.61
2023-02-15T22:47:22.964Z,95.12
2023-02-15T22:49:44.383Z,94.98
2023-02-15T22:52:06.336Z,94.85
2023-02-15T22:54:27.760Z,94.25
2023-02-15T22:56:51.906Z,93.61
2023-02-15T22:59:28.328Z,92.89
2023-02-15T23:01:50.204Z,92.72
2023-02-15T23:04:17.142Z,93.18
2023-02-15T23:06:38.633Z,92.94
2023-02-15T23:09:00.832Z,94.12
2023-02-15T23:11:22.461Z,93.45
2023-02-15T23:13:43.983Z,93.33
2023-02-15T23:16:07.047Z,92.65
2023-02-15T23:18:36.884Z,92.66
2023-02-15T23:21:06.497Z,92.48
2023-02-15T23:23:40.919Z,93.13
2023-02-15T23:26:04.579Z,94.14
2023-02-15T23:28:28.087Z,93.73
2023-02-15T23:30:50.173Z,93.17
2023-02-15T23:33:12.241Z,93.59
2023-02-15T23:35:33.659Z,94.71
2023-02-15T23:37:55.108Z,96.69
2023-02-15T23:40:37.162Z,98.19
2023-02-15T23:42:58.735Z,98.74
2023-02-15T23:45:23.813Z,99.50
2023-02-15T23:48:05.018Z,98.97
2023-02-15T23:50:29.180Z,97.45
2023-02-15T23:52:51.696Z,97.77
2023-02-15T23:55:14.135Z,97.15
2023-02-15T23:57:35.594Z,95.95
2023-02-15T23:59:57.044Z,95.10
